sensor_id;sensor_type;location;lat;lon;timestamp;pressure;altitude;pressure_sealevel;temperature;humidity
28428;BME280;15662;49.128;8.520;2023-03-25T00:01:15;99762.13;;;15.37;51.75
28428;BME280;15662;49.128;8.520;2023-03-25T00:03:44;99770.94;;;15.39;51.77
28428;BME280;15662;49.128;8.520;2023-03-25T00:06:18;99771.03;;;15.37;51.79
28428;BME280;15662;49.128;8.520;2023-03-25T00:08:46;99774.72;;;15.35;51.73
28428;BME280;15662;49.128;8.520;2023-03-25T00:11:14;99783.78;;;15.32;51.60
28428;BME280;15662;49.128;8.520;2023-03-25T00:13:42;99775.91;;;15.29;51.57
28428;BME280;15662;49.128;8.520;2023-03-25T00:16:11;99779.59;;;15.27;51.37
28428;BME280;15662;49.128;8.520;2023-03-25T00:18:39;99783.41;;;15.22;51.37
28428;BME280;15662;49.128;8.520;2023-03-25T00:21:07;99763.75;;;15.23;51.26
28428;BME280;15662;49.128;8.520;2023-03-25T00:23:39;99774.59;;;15.20;51.35
28428;BME280;15662;49.128;8.520;2023-03-25T00:26:08;99764.34;;;15.13;51.25
28428;BME280;15662;49.128;8.520;2023-03-25T00:28:37;99762.69;;;15.10;51.32
28428;BME280;15662;49.128;8.520;2023-03-25T00:31:10;99761.94;;;15.08;51.00
28428;BME280;15662;49.128;8.520;2023-03-25T00:33:39;99757.78;;;15.03;51.15
28428;BME280;15662;49.128;8.520;2023-03-25T00:36:11;99756.19;;;14.83;51.43
28428;BME280;15662;49.128;8.520;2023-03-25T00:38:41;99766.75;;;14.84;51.49
28428;BME280;15662;49.128;8.520;2023-03-25T00:41:19;99759.19;;;14.92;51.21
28428;BME280;15662;49.128;8.520;2023-03-25T00:44:10;99758.44;;;14.90;51.14
28428;BME280;15662;49.128;8.520;2023-03-25T00:46:43;99762.19;;;14.86;51.26
28428;BME280;15662;49.128;8.520;2023-03-25T00:49:12;99752.38;;;14.87;51.27
28428;BME280;15662;49.128;8.520;2023-03-25T00:51:40;99743.38;;;14.89;51.12
28428;BME280;15662;49.128;8.520;2023-03-25T00:54:22;99753.25;;;14.87;51.14
28428;BME280;15662;49.128;8.520;2023-03-25T00:56:51;99751.28;;;14.91;51.01
28428;BME280;15662;49.128;8.520;2023-03-25T00:59:20;99734.50;;;14.89;51.09
28428;BME280;15662;49.128;8.520;2023-03-25T01:01:47;99735.88;;;14.96;51.25
28428;BME280;15662;49.128;8.520;2023-03-25T01:04:15;99737.53;;;14.99;51.14
28428;BME280;15662;49.128;8.520;2023-03-25T01:06:45;99733.84;;;15.01;51.22
28428;BME280;15662;49.128;8.520;2023-03-25T01:09:19;99721.09;;;15.06;51.14
28428;BME280;15662;49.128;8.520;2023-03-25T01:11:48;99725.75;;;15.03;51.06
28428;BME280;15662;49.128;8.520;2023-03-25T01:14:19;99726.38;;;15.08;51.07
28428;BME280;15662;49.128;8.520;2023-03-25T01:16:47;99718.63;;;15.03;51.21
28428;BME280;15662;49.128;8.520;2023-03-25T01:19:15;99723.84;;;15.05;51.10
28428;BME280;15662;49.128;8.520;2023-03-25T01:21:43;99724.72;;;15.05;51.12
28428;BME280;15662;49.128;8.520;2023-03-25T01:24:13;99728.34;;;15.04;51.16
28428;BME280;15662;49.128;8.520;2023-03-25T01:26:43;99731.78;;;15.06;51.16
28428;BME280;15662;49.128;8.520;2023-03-25T01:29:15;99730.22;;;15.02;51.31
28428;BME280;15662;49.128;8.520;2023-03-25T01:31:43;99744.50;;;15.01;51.25
28428;BME280;15662;49.128;8.520;2023-03-25T01:34:13;99747.97;;;15.03;51.36
28428;BME280;15662;49.128;8.520;2023-03-25T01:36:41;99742.53;;;15.05;51.48
28428;BME280;15662;49.128;8.520;2023-03-25T01:39:15;99764.09;;;14.84;51.69
28428;BME280;15662;49.128;8.520;2023-03-25T01:41:46;99776.41;;;14.87;51.74
28428;BME280;15662;49.128;8.520;2023-03-25T01:46:52;99801.94;;;14.75;52.32
28428;BME280;15662;49.128;8.520;2023-03-25T01:49:29;99789.88;;;14.68;52.54
28428;BME280;15662;49.128;8.520;2023-03-25T01:52:03;99794.53;;;14.63;52.67
28428;BME280;15662;49.128;8.520;2023-03-25T01:54:33;99794.22;;;14.52;52.91
28428;BME280;15662;49.128;8.520;2023-03-25T01:57:02;99816.72;;;14.46;53.04
28428;BME280;15662;49.128;8.520;2023-03-25T01:59:30;99826.84;;;14.39;53.11
28428;BME280;15662;49.128;8.520;2023-03-25T02:02:01;99783.53;;;14.34;53.15
28428;BME280;15662;49.128;8.520;2023-03-25T02:04:48;99762.38;;;14.31;53.19
28428;BME280;15662;49.128;8.520;2023-03-25T02:07:30;99761.88;;;14.23;53.41
28428;BME280;15662;49.128;8.520;2023-03-25T02:10:03;99769.88;;;14.23;53.29
28428;BME280;15662;49.128;8.520;2023-03-25T02:12:32;99782.28;;;14.24;53.12
28428;BME280;15662;49.128;8.520;2023-03-25T02:15:04;99769.88;;;14.23;53.03
28428;BME280;15662;49.128;8.520;2023-03-25T02:20:55;99768.72;;;14.29;52.92
28428;BME280;15662;49.128;8.520;2023-03-25T02:24:15;99781.97;;;14.30;52.82
28428;BME280;15662;49.128;8.520;2023-03-25T02:38:52;99799.78;;;14.30;52.46
28428;BME280;15662;49.128;8.520;2023-03-25T02:41:50;99801.56;;;14.29;52.48
28428;BME280;15662;49.128;8.520;2023-03-25T02:47:30;99792.00;;;14.25;52.40
28428;BME280;15662;49.128;8.520;2023-03-25T02:50:17;99787.38;;;14.29;52.42
28428;BME280;15662;49.128;8.520;2023-03-25T02:52:51;99788.31;;;14.28;52.43
28428;BME280;15662;49.128;8.520;2023-03-25T02:55:23;99792.94;;;14.24;52.48
28428;BME280;15662;49.128;8.520;2023-03-25T02:57:55;99795.53;;;14.26;52.42
28428;BME280;15662;49.128;8.520;2023-03-25T03:00:26;99797.16;;;14.28;52.39
28428;BME280;15662;49.128;8.520;2023-03-25T03:03:04;99804.25;;;14.29;52.41
28428;BME280;15662;49.128;8.520;2023-03-25T03:05:41;99799.81;;;14.28;52.59
28428;BME280;15662;49.128;8.520;2023-03-25T03:11:30;99794.09;;;14.18;52.49
28428;BME280;15662;49.128;8.520;2023-03-25T03:14:30;99796.06;;;14.15;52.73
28428;BME280;15662;49.128;8.520;2023-03-25T03:20:25;99800.59;;;14.13;52.59
28428;BME280;15662;49.128;8.520;2023-03-25T03:23:08;99803.34;;;14.11;52.35
28428;BME280;15662;49.128;8.520;2023-03-25T03:26:04;99798.00;;;14.11;52.71
28428;BME280;15662;49.128;8.520;2023-03-25T03:28:50;99801.41;;;14.15;52.66
28428;BME280;15662;49.128;8.520;2023-03-25T03:31:30;99804.84;;;14.17;52.33
28428;BME280;15662;49.128;8.520;2023-03-25T03:34:30;99808.38;;;14.17;52.44
28428;BME280;15662;49.128;8.520;2023-03-25T03:37:09;99809.94;;;14.22;52.70
28428;BME280;15662;49.128;8.520;2023-03-25T03:39:40;99816.13;;;14.22;52.68
28428;BME280;15662;49.128;8.520;2023-03-25T03:42:43;99808.84;;;14.26;52.50
28428;BME280;15662;49.128;8.520;2023-03-25T03:45:46;99810.81;;;14.22;52.57
28428;BME280;15662;49.128;8.520;2023-03-25T03:48:22;99805.34;;;14.25;52.55
28428;BME280;15662;49.128;8.520;2023-03-25T03:50:57;99809.72;;;14.26;52.43
28428;BME280;15662;49.128;8.520;2023-03-25T03:53:35;99807.81;;;14.28;52.36
28428;BME280;15662;49.128;8.520;2023-03-25T03:56:30;99812.47;;;14.25;52.42
28428;BME280;15662;49.128;8.520;2023-03-25T03:59:56;99818.56;;;14.27;52.43
28428;BME280;15662;49.128;8.520;2023-03-25T04:02:10;99814.28;;;14.24;52.47
28428;BME280;15662;49.128;8.520;2023-03-25T04:04:44;99813.28;;;14.08;52.58
28428;BME280;15662;49.128;8.520;2023-03-25T04:07:16;99815.41;;;14.18;52.51
28428;BME280;15662;49.128;8.520;2023-03-25T04:10:22;99810.97;;;14.19;52.44
28428;BME280;15662;49.128;8.520;2023-03-25T04:12:57;99806.78;;;14.13;52.38
28428;BME280;15662;49.128;8.520;2023-03-25T04:15:27;99803.22;;;14.14;52.21
28428;BME280;15662;49.128;8.520;2023-03-25T04:17:55;99807.50;;;14.17;52.31
28428;BME280;15662;49.128;8.520;2023-03-25T04:20:25;99803.03;;;14.17;51.86
28428;BME280;15662;49.128;8.520;2023-03-25T04:22:56;99804.06;;;14.15;51.91
28428;BME280;15662;49.128;8.520;2023-03-25T04:25:24;99814.84;;;14.12;51.92
28428;BME280;15662;49.128;8.520;2023-03-25T04:27:52;99812.19;;;14.12;51.91
28428;BME280;15662;49.128;8.520;2023-03-25T04:30:45;99815.03;;;14.09;51.97
28428;BME280;15662;49.128;8.520;2023-03-25T04:33:15;99800.03;;;14.06;51.62
28428;BME280;15662;49.128;8.520;2023-03-25T04:35:44;99809.13;;;14.02;51.79
28428;BME280;15662;49.128;8.520;2023-03-25T04:38:12;99806.63;;;13.99;51.79
28428;BME280;15662;49.128;8.520;2023-03-25T04:40:45;99803.97;;;13.99;51.79
28428;BME280;15662;49.128;8.520;2023-03-25T04:43:14;99801.50;;;13.94;51.75
28428;BME280;15662;49.128;8.520;2023-03-25T04:45:43;99811.31;;;13.94;51.60
28428;BME280;15662;49.128;8.520;2023-03-25T04:48:27;99799.06;;;13.90;51.51
28428;BME280;15662;49.128;8.520;2023-03-25T04:51:00;99799.28;;;13.85;51.70
28428;BME280;15662;49.128;8.520;2023-03-25T04:53:30;99801.09;;;13.85;51.58
28428;BME280;15662;49.128;8.520;2023-03-25T04:55:58;99811.66;;;13.86;51.57
28428;BME280;15662;49.128;8.520;2023-03-25T04:58:26;99812.44;;;13.88;51.55
28428;BME280;15662;49.128;8.520;2023-03-25T05:00:55;99819.34;;;13.92;51.65
28428;BME280;15662;49.128;8.520;2023-03-25T05:03:23;99820.22;;;13.93;51.93
28428;BME280;15662;49.128;8.520;2023-03-25T05:05:52;99819.13;;;13.97;51.92
28428;BME280;15662;49.128;8.520;2023-03-25T05:08:20;99823.38;;;14.01;52.05
28428;BME280;15662;49.128;8.520;2023-03-25T05:10:49;99830.34;;;14.04;52.08
28428;BME280;15662;49.128;8.520;2023-03-25T05:13:17;99826.59;;;14.08;52.00
28428;BME280;15662;49.128;8.520;2023-03-25T05:15:46;99827.31;;;14.11;51.84
28428;BME280;15662;49.128;8.520;2023-03-25T05:18:15;99833.59;;;14.10;51.87
28428;BME280;15662;49.128;8.520;2023-03-25T05:20:45;99838.72;;;14.15;51.83
28428;BME280;15662;49.128;8.520;2023-03-25T05:23:14;99850.22;;;14.15;51.90
28428;BME280;15662;49.128;8.520;2023-03-25T05:25:49;99841.38;;;14.15;51.78
28428;BME280;15662;49.128;8.520;2023-03-25T05:28:18;99843.00;;;14.17;51.78
28428;BME280;15662;49.128;8.520;2023-03-25T05:30:47;99843.00;;;14.17;51.79
28428;BME280;15662;49.128;8.520;2023-03-25T05:33:16;99835.88;;;14.18;51.80
28428;BME280;15662;49.128;8.520;2023-03-25T05:35:45;99843.00;;;14.17;51.57
28428;BME280;15662;49.128;8.520;2023-03-25T05:38:15;99843.22;;;14.13;51.47
28428;BME280;15662;49.128;8.520;2023-03-25T05:40:47;99850.16;;;14.17;51.48
28428;BME280;15662;49.128;8.520;2023-03-25T05:43:16;99854.75;;;14.13;51.48
28428;BME280;15662;49.128;8.520;2023-03-25T05:45:49;99853.84;;;14.14;51.49
28428;BME280;15662;49.128;8.520;2023-03-25T05:48:17;99842.38;;;14.12;51.44
28428;BME280;15662;49.128;8.520;2023-03-25T05:50:45;99849.59;;;14.10;51.41
28428;BME280;15662;49.128;8.520;2023-03-25T05:53:14;99840.78;;;14.08;51.40
28428;BME280;15662;49.128;8.520;2023-03-25T05:55:42;99837.25;;;14.08;51.28
28428;BME280;15662;49.128;8.520;2023-03-25T05:58:10;99839.06;;;14.07;51.25
28428;BME280;15662;49.128;8.520;2023-03-25T06:00:38;99832.03;;;14.06;51.28
28428;BME280;15662;49.128;8.520;2023-03-25T06:03:07;99824.03;;;14.06;51.10
28428;BME280;15662;49.128;8.520;2023-03-25T06:05:38;99834.59;;;14.08;51.19
28428;BME280;15662;49.128;8.520;2023-03-25T06:08:06;99830.59;;;13.99;51.17
28428;BME280;15662;49.128;8.520;2023-03-25T06:10:34;99836.56;;;14.04;51.12
28428;BME280;15662;49.128;8.520;2023-03-25T06:13:03;99830.34;;;14.04;51.13
28428;BME280;15662;49.128;8.520;2023-03-25T06:15:31;99841.00;;;14.04;51.26
28428;BME280;15662;49.128;8.520;2023-03-25T06:18:06;99831.25;;;14.04;51.20
28428;BME280;15662;49.128;8.520;2023-03-25T06:20:34;99830.34;;;14.04;51.17
28428;BME280;15662;49.128;8.520;2023-03-25T06:23:01;99839.25;;;14.04;51.08
28428;BME280;15662;49.128;8.520;2023-03-25T06:25:29;99831.16;;;14.06;51.32
28428;BME280;15662;49.128;8.520;2023-03-25T06:27:57;99837.25;;;14.08;51.22
28428;BME280;15662;49.128;8.520;2023-03-25T06:30:30;99820.38;;;14.09;51.17
28428;BME280;15662;49.128;8.520;2023-03-25T06:32:57;99840.78;;;14.08;51.03
28428;BME280;15662;49.128;8.520;2023-03-25T06:35:30;99845.44;;;14.05;51.37
28428;BME280;15662;49.128;8.520;2023-03-25T06:38:00;99846.41;;;14.02;51.79
28428;BME280;15662;49.128;8.520;2023-03-25T06:40:37;99837.88;;;13.96;52.09
28428;BME280;15662;49.128;8.520;2023-03-25T06:43:06;99836.19;;;13.93;52.45
28428;BME280;15662;49.128;8.520;2023-03-25T06:45:36;99847.03;;;13.90;52.54
28428;BME280;15662;49.128;8.520;2023-03-25T06:48:10;99841.75;;;13.88;52.60
28428;BME280;15662;49.128;8.520;2023-03-25T06:50:38;99854.22;;;13.88;52.75
28428;BME280;15662;49.128;8.520;2023-03-25T06:53:05;99842.59;;;13.89;52.63
28428;BME280;15662;49.128;8.520;2023-03-25T06:55:33;99854.59;;;13.99;52.61
28428;BME280;15662;49.128;8.520;2023-03-25T06:58:02;99844.78;;;14.00;52.90
28428;BME280;15662;49.128;8.520;2023-03-25T07:00:30;99841.81;;;14.06;52.79
28428;BME280;15662;49.128;8.520;2023-03-25T07:02:58;99853.13;;;14.11;53.00
28428;BME280;15662;49.128;8.520;2023-03-25T07:05:26;99856.56;;;14.13;53.01
28428;BME280;15662;49.128;8.520;2023-03-25T07:07:54;99867.81;;;14.19;53.14
28428;BME280;15662;49.128;8.520;2023-03-25T07:10:22;99851.94;;;14.16;53.52
28428;BME280;15662;49.128;8.520;2023-03-25T07:12:50;99838.91;;;14.29;53.45
28428;BME280;15662;49.128;8.520;2023-03-25T07:15:18;99847.44;;;14.36;53.35
28428;BME280;15662;49.128;8.520;2023-03-25T07:17:48;99835.69;;;14.40;53.20
28428;BME280;15662;49.128;8.520;2023-03-25T07:20:16;99836.31;;;14.45;53.06
28428;BME280;15662;49.128;8.520;2023-03-25T07:22:44;99839.75;;;14.49;52.83
28428;BME280;15662;49.128;8.520;2023-03-25T07:25:12;99835.09;;;14.52;52.87
28428;BME280;15662;49.128;8.520;2023-03-25T07:27:40;99838.25;;;14.60;52.74
28428;BME280;15662;49.128;8.520;2023-03-25T07:30:13;99846.75;;;14.68;52.81
28428;BME280;15662;49.128;8.520;2023-03-25T07:32:44;99841.84;;;14.77;52.81
28428;BME280;15662;49.128;8.520;2023-03-25T07:35:12;99847.81;;;14.82;52.95
28428;BME280;15662;49.128;8.520;2023-03-25T07:37:40;99850.88;;;14.91;52.89
28428;BME280;15662;49.128;8.520;2023-03-25T07:40:08;99854.97;;;14.99;52.54
28428;BME280;15662;49.128;8.520;2023-03-25T07:42:36;99865.53;;;15.00;52.54
28428;BME280;15662;49.128;8.520;2023-03-25T07:45:35;99849.69;;;14.97;52.53
28428;BME280;15662;49.128;8.520;2023-03-25T07:48:11;99869.00;;;15.02;52.37
28428;BME280;15662;49.128;8.520;2023-03-25T07:50:42;99870.56;;;15.06;52.48
28428;BME280;15662;49.128;8.520;2023-03-25T07:53:10;99877.31;;;15.13;52.57
28428;BME280;15662;49.128;8.520;2023-03-25T07:55:38;99857.84;;;15.11;52.46
28428;BME280;15662;49.128;8.520;2023-03-25T07:58:06;99857.69;;;15.14;52.55
28428;BME280;15662;49.128;8.520;2023-03-25T08:00:34;99862.31;;;15.11;52.60
28428;BME280;15662;49.128;8.520;2023-03-25T08:03:02;99852.59;;;15.10;52.71
28428;BME280;15662;49.128;8.520;2023-03-25T08:05:30;99848.03;;;15.12;52.90
28428;BME280;15662;49.128;8.520;2023-03-25T08:07:58;99856.59;;;15.18;53.15
28428;BME280;15662;49.128;8.520;2023-03-25T08:10:27;99857.44;;;15.19;53.10
28428;BME280;15662;49.128;8.520;2023-03-25T08:12:55;99868.97;;;15.19;53.26
28428;BME280;15662;49.128;8.520;2023-03-25T08:15:23;99864.59;;;15.18;53.42
28428;BME280;15662;49.128;8.520;2023-03-25T08:17:52;99861.06;;;15.18;53.48
28428;BME280;15662;49.128;8.520;2023-03-25T08:20:20;99872.13;;;15.10;53.60
28428;BME280;15662;49.128;8.520;2023-03-25T08:22:48;99884.75;;;15.07;53.72
28428;BME280;15662;49.128;8.520;2023-03-25T08:25:16;99888.84;;;14.96;53.58
28428;BME280;15662;49.128;8.520;2023-03-25T08:27:44;99891.38;;;14.82;53.48
28428;BME280;15662;49.128;8.520;2023-03-25T08:30:12;99875.91;;;14.71;53.76
28428;BME280;15662;49.128;8.520;2023-03-25T08:32:41;99871.75;;;14.66;53.96
28428;BME280;15662;49.128;8.520;2023-03-25T08:35:13;99878.41;;;14.57;53.79
28428;BME280;15662;49.128;8.520;2023-03-25T08:37:40;99891.03;;;14.54;53.85
28428;BME280;15662;49.128;8.520;2023-03-25T08:40:08;99889.06;;;14.57;53.70
28428;BME280;15662;49.128;8.520;2023-03-25T08:42:37;99862.63;;;14.53;53.80
28428;BME280;15662;49.128;8.520;2023-03-25T08:45:05;99880.28;;;14.55;53.86
28428;BME280;15662;49.128;8.520;2023-03-25T08:47:36;99859.19;;;14.51;53.92
28428;BME280;15662;49.128;8.520;2023-03-25T08:50:04;99875.81;;;14.56;54.16
28428;BME280;15662;49.128;8.520;2023-03-25T08:52:32;99895.75;;;14.47;54.44
28428;BME280;15662;49.128;8.520;2023-03-25T08:55:00;99881.97;;;14.39;54.40
28428;BME280;15662;49.128;8.520;2023-03-25T08:57:28;99906.09;;;14.36;54.84
28428;BME280;15662;49.128;8.520;2023-03-25T08:59:56;99900.00;;;14.34;54.99
28428;BME280;15662;49.128;8.520;2023-03-25T09:02:24;99890.25;;;14.33;55.29
28428;BME280;15662;49.128;8.520;2023-03-25T09:04:52;99909.41;;;14.41;55.34
28428;BME280;15662;49.128;8.520;2023-03-25T09:07:21;99902.00;;;14.48;55.63
28428;BME280;15662;49.128;8.520;2023-03-25T09:09:49;99891.72;;;14.57;55.52
28428;BME280;15662;49.128;8.520;2023-03-25T09:12:18;99905.34;;;14.70;55.58
28428;BME280;15662;49.128;8.520;2023-03-25T09:14:46;99895.28;;;14.75;55.42
28428;BME280;15662;49.128;8.520;2023-03-25T09:17:14;99885.09;;;14.83;55.32
28428;BME280;15662;49.128;8.520;2023-03-25T09:19:42;99888.63;;;14.84;55.12
28428;BME280;15662;49.128;8.520;2023-03-25T09:22:10;99878.50;;;14.90;55.17
28428;BME280;15662;49.128;8.520;2023-03-25T09:24:38;99888.78;;;14.98;55.43
28428;BME280;15662;49.128;8.520;2023-03-25T09:27:07;99881.41;;;15.03;55.28
28428;BME280;15662;49.128;8.520;2023-03-25T09:29:35;99886.66;;;15.05;55.34
28428;BME280;15662;49.128;8.520;2023-03-25T09:32:03;99900.53;;;15.11;55.38
28428;BME280;15662;49.128;8.520;2023-03-25T09:34:31;99885.88;;;15.20;55.45
28428;BME280;15662;49.128;8.520;2023-03-25T09:36:59;99876.84;;;15.22;55.41
28428;BME280;15662;49.128;8.520;2023-03-25T09:39:28;99884.03;;;15.38;55.47
28428;BME280;15662;49.128;8.520;2023-03-25T09:45:38;99886.19;;;15.64;55.19
28428;BME280;15662;49.128;8.520;2023-03-25T09:48:41;99885.19;;;15.67;54.94
28428;BME280;15662;49.128;8.520;2023-03-25T09:51:15;99888.28;;;15.75;55.26
28428;BME280;15662;49.128;8.520;2023-03-25T09:54:19;99886.50;;;15.91;55.09
28428;BME280;15662;49.128;8.520;2023-03-25T09:56:49;99901.25;;;15.98;54.96
28428;BME280;15662;49.128;8.520;2023-03-25T09:59:21;99898.91;;;16.08;54.58
28428;BME280;15662;49.128;8.520;2023-03-25T10:02:01;99883.22;;;16.18;54.71
28428;BME280;15662;49.128;8.520;2023-03-25T10:13:23;99878.75;;;16.64;54.17
28428;BME280;15662;49.128;8.520;2023-03-25T10:25:22;99863.75;;;16.77;53.15
28428;BME280;15662;49.128;8.520;2023-03-25T10:27:51;99856.66;;;16.76;52.79
28428;BME280;15662;49.128;8.520;2023-03-25T10:30:37;99865.38;;;16.80;52.40
28428;BME280;15662;49.128;8.520;2023-03-25T10:33:38;99859.53;;;16.73;52.50
28428;BME280;15662;49.128;8.520;2023-03-25T10:36:14;99871.25;;;16.71;52.41
28428;BME280;15662;49.128;8.520;2023-03-25T10:38:50;99874.94;;;16.68;52.24
28428;BME280;15662;49.128;8.520;2023-03-25T10:41:39;99847.00;;;16.58;52.63
28428;BME280;15662;49.128;8.520;2023-03-25T10:44:10;99853.09;;;16.46;52.75
28428;BME280;15662;49.128;8.520;2023-03-25T10:46:48;99856.44;;;16.49;53.03
28428;BME280;15662;49.128;8.520;2023-03-25T10:49:22;99863.59;;;16.49;53.23
28428;BME280;15662;49.128;8.520;2023-03-25T10:51:52;99865.31;;;16.50;53.42
28428;BME280;15662;49.128;8.520;2023-03-25T10:54:36;99866.78;;;16.56;53.21
28428;BME280;15662;49.128;8.520;2023-03-25T10:57:08;99858.41;;;16.62;53.63
28428;BME280;15662;49.128;8.520;2023-03-25T11:02:44;99858.22;;;16.81;54.07
28428;BME280;15662;49.128;8.520;2023-03-25T11:05:18;99855.75;;;16.92;54.04
28428;BME280;15662;49.128;8.520;2023-03-25T11:07:52;99842.56;;;17.03;54.11
28428;BME280;15662;49.128;8.520;2023-03-25T11:10:31;99842.81;;;17.14;54.14
28428;BME280;15662;49.128;8.520;2023-03-25T11:13:02;99839.22;;;17.14;54.23
28428;BME280;15662;49.128;8.520;2023-03-25T11:15:37;99846.25;;;17.31;54.12
28428;BME280;15662;49.128;8.520;2023-03-25T11:18:21;99831.31;;;17.41;53.79
28428;BME280;15662;49.128;8.520;2023-03-25T11:20:59;99833.50;;;17.48;53.64
28428;BME280;15662;49.128;8.520;2023-03-25T11:23:34;99837.16;;;17.62;53.47
28428;BME280;15662;49.128;8.520;2023-03-25T11:26:25;99835.59;;;17.72;52.73
28428;BME280;15662;49.128;8.520;2023-03-25T11:29:00;99838.25;;;17.73;52.31
28428;BME280;15662;49.128;8.520;2023-03-25T11:31:34;99840.41;;;17.81;51.10
28428;BME280;15662;49.128;8.520;2023-03-25T11:36:35;99842.06;;;17.84;50.36
28428;BME280;15662;49.128;8.520;2023-03-25T11:41:50;99839.72;;;17.92;50.12
28428;BME280;15662;49.128;8.520;2023-03-25T11:44:31;99847.69;;;17.93;49.89
28428;BME280;15662;49.128;8.520;2023-03-25T11:47:03;99833.88;;;17.99;49.32
28428;BME280;15662;49.128;8.520;2023-03-25T11:49:38;99829.47;;;17.98;48.70
28428;BME280;15662;49.128;8.520;2023-03-25T11:52:20;99819.38;;;18.02;48.43
28428;BME280;15662;49.128;8.520;2023-03-25T11:54:49;99842.09;;;17.96;48.62
28428;BME280;15662;49.128;8.520;2023-03-25T11:57:26;99844.91;;;17.95;47.96
28428;BME280;15662;49.128;8.520;2023-03-25T12:00:05;99852.47;;;17.88;48.26
28428;BME280;15662;49.128;8.520;2023-03-25T12:02:41;99861.53;;;17.71;48.50
28428;BME280;15662;49.128;8.520;2023-03-25T12:05:12;99862.97;;;17.63;48.52
28428;BME280;15662;49.128;8.520;2023-03-25T12:07:49;99856.97;;;17.45;48.32
28428;BME280;15662;49.128;8.520;2023-03-25T12:13:16;99848.34;;;17.11;48.32
28428;BME280;15662;49.128;8.520;2023-03-25T12:19:31;99846.00;;;16.91;48.76
28428;BME280;15662;49.128;8.520;2023-03-25T12:25:51;99835.94;;;16.80;49.33
28428;BME280;15662;49.128;8.520;2023-03-25T12:31:48;99838.69;;;16.79;48.77
28428;BME280;15662;49.128;8.520;2023-03-25T12:43:17;99825.81;;;16.69;48.91
28428;BME280;15662;49.128;8.520;2023-03-25T12:55:35;99845.88;;;16.78;48.22
28428;BME280;15662;49.128;8.520;2023-03-25T13:01:51;99840.28;;;16.97;47.64
28428;BME280;15662;49.128;8.520;2023-03-25T13:07:31;99816.38;;;17.22;45.65
28428;BME280;15662;49.128;8.520;2023-03-25T13:10:20;99813.03;;;17.33;44.91
28428;BME280;15662;49.128;8.520;2023-03-25T13:12:56;99825.78;;;17.44;44.97
28428;BME280;15662;49.128;8.520;2023-03-25T13:15:38;99824.81;;;17.59;44.41
28428;BME280;15662;49.128;8.520;2023-03-25T13:21:09;99822.41;;;17.69;44.27
28428;BME280;15662;49.128;8.520;2023-03-25T13:23:44;99825.41;;;17.78;44.06
28428;BME280;15662;49.128;8.520;2023-03-25T13:26:25;99820.31;;;17.88;43.38
28428;BME280;15662;49.128;8.520;2023-03-25T13:31:52;99821.03;;;18.04;44.04
28428;BME280;15662;49.128;8.520;2023-03-25T13:34:39;99801.13;;;18.21;43.37
28428;BME280;15662;49.128;8.520;2023-03-25T13:42:54;99827.00;;;18.49;41.54
28428;BME280;15662;49.128;8.520;2023-03-25T13:45:32;99822.13;;;18.42;41.61
28428;BME280;15662;49.128;8.520;2023-03-25T13:48:19;99806.25;;;18.39;41.14
28428;BME280;15662;49.128;8.520;2023-03-25T13:50:53;99817.03;;;18.24;41.44
28428;BME280;15662;49.128;8.520;2023-03-25T14:00:02;99814.78;;;18.31;41.89
28428;BME280;15662;49.128;8.520;2023-03-25T14:03:18;99825.44;;;18.33;42.02
28428;BME280;15662;49.128;8.520;2023-03-25T14:12:50;99835.59;;;18.00;43.16
28428;BME280;15662;49.128;8.520;2023-03-25T14:15:25;99841.13;;;17.97;43.79
28428;BME280;15662;49.128;8.520;2023-03-25T14:17:56;99849.28;;;17.96;43.35
28428;BME280;15662;49.128;8.520;2023-03-25T14:20:36;99833.50;;;17.91;42.89
28428;BME280;15662;49.128;8.520;2023-03-25T14:23:18;99848.84;;;17.89;42.40
28428;BME280;15662;49.128;8.520;2023-03-25T14:25:55;99842.06;;;17.84;42.06
28428;BME280;15662;49.128;8.520;2023-03-25T14:28:39;99855.75;;;17.79;41.62
28428;BME280;15662;49.128;8.520;2023-03-25T14:44:40;99849.03;;;17.86;41.62
28428;BME280;15662;49.128;8.520;2023-03-25T14:50:00;99853.22;;;17.90;40.95
28428;BME280;15662;49.128;8.520;2023-03-25T14:52:42;99844.34;;;17.90;41.25
28428;BME280;15662;49.128;8.520;2023-03-25T14:57:47;99839.16;;;17.87;41.03
28428;BME280;15662;49.128;8.520;2023-03-25T15:00:28;99836.41;;;17.88;41.25
28428;BME280;15662;49.128;8.520;2023-03-25T15:03:15;99844.03;;;17.94;41.44
28428;BME280;15662;49.128;8.520;2023-03-25T15:05:55;99826.31;;;17.92;41.01
28428;BME280;15662;49.128;8.520;2023-03-25T15:08:34;99822.78;;;17.91;41.07
28428;BME280;15662;49.128;8.520;2023-03-25T15:11:25;99820.88;;;17.93;40.90
28428;BME280;15662;49.128;8.520;2023-03-25T15:14:00;99824.41;;;17.94;41.02
28428;BME280;15662;49.128;8.520;2023-03-25T15:17:03;99830.22;;;18.00;41.05
28428;BME280;15662;49.128;8.520;2023-03-25T15:22:26;99830.34;;;17.99;41.15
28428;BME280;15662;49.128;8.520;2023-03-25T15:24:57;99807.91;;;18.00;40.08
28428;BME280;15662;49.128;8.520;2023-03-25T15:27:33;99828.44;;;17.87;39.80
28428;BME280;15662;49.128;8.520;2023-03-25T15:34:47;99828.59;;;17.98;39.48
28428;BME280;15662;49.128;8.520;2023-03-25T15:51:50;99832.19;;;18.11;37.19
28428;BME280;15662;49.128;8.520;2023-03-25T15:54:59;99824.00;;;18.00;37.75
28428;BME280;15662;49.128;8.520;2023-03-25T15:57:53;99837.78;;;18.08;37.87
28428;BME280;15662;49.128;8.520;2023-03-25T16:00:35;99828.78;;;18.09;37.89
28428;BME280;15662;49.128;8.520;2023-03-25T16:03:19;99820.72;;;18.09;37.65
28428;BME280;15662;49.128;8.520;2023-03-25T16:05:57;99828.56;;;18.12;37.77
28428;BME280;15662;49.128;8.520;2023-03-25T16:08:46;99813.91;;;18.18;37.26
28428;BME280;15662;49.128;8.520;2023-03-25T16:11:26;99818.19;;;18.20;37.34
28428;BME280;15662;49.128;8.520;2023-03-25T16:14:21;99810.16;;;18.20;37.54
28428;BME280;15662;49.128;8.520;2023-03-25T16:16:52;99809.28;;;18.20;37.56
28428;BME280;15662;49.128;8.520;2023-03-25T16:19:26;99819.81;;;18.23;37.52